createdAt,value
2018-12-06T00:01:55.813Z,2.10
2018-12-06T00:04:23.984Z,2.77
2018-12-06T00:06:52.124Z,2.17
2018-12-06T00:09:20.305Z,2.00
2018-12-06T00:11:48.516Z,2.53
2018-12-06T00:14:16.653Z,2.30
2018-12-06T00:16:56.935Z,1.83
2018-12-06T00:19:25.077Z,3.77
2018-12-06T00:21:53.289Z,2.30
2018-12-06T00:24:21.430Z,2.07
2018-12-06T00:26:49.625Z,1.83
2018-12-06T00:29:17.904Z,2.33
2018-12-06T00:31:46.046Z,2.00
2018-12-06T00:34:14.181Z,3.20
2018-12-06T00:36:42.325Z,2.23
2018-12-06T00:39:10.528Z,3.27
2018-12-06T00:41:38.683Z,2.30
2018-12-06T00:44:06.865Z,2.37
2018-12-06T00:46:35.008Z,2.23
2018-12-06T00:49:03.176Z,2.63
2018-12-06T00:51:31.405Z,2.00
2018-12-06T00:53:59.634Z,2.00
2018-12-06T00:56:27.816Z,2.10
2018-12-06T00:58:55.973Z,2.37
2018-12-06T01:01:24.150Z,2.53
2018-12-06T01:03:52.328Z,2.67
2018-12-06T01:06:20.474Z,2.33
2018-12-06T01:08:48.596Z,1.67
2018-12-06T01:11:17.100Z,2.07
2018-12-06T01:13:45.252Z,2.83
2018-12-06T01:16:13.474Z,3.13
2018-12-06T01:18:41.676Z,2.27
2018-12-06T01:21:09.857Z,3.23
2018-12-06T01:23:38.039Z,2.30
2018-12-06T01:26:06.261Z,2.37
2018-12-06T01:28:34.384Z,2.50
2018-12-06T01:31:02.533Z,2.40
2018-12-06T01:33:30.702Z,2.27
2018-12-06T01:35:58.828Z,2.50
2018-12-06T01:38:27.031Z,2.00
2018-12-06T01:40:55.119Z,3.17
2018-12-06T01:43:23.220Z,2.27
2018-12-06T01:45:51.401Z,2.30
2018-12-06T01:48:19.880Z,2.27
2018-12-06T01:50:48.085Z,2.33
2018-12-06T01:53:16.248Z,2.90
2018-12-06T01:55:45.475Z,1.63
2018-12-06T01:58:13.611Z,2.13
2018-12-06T02:00:41.787Z,1.97
2018-12-06T02:03:09.974Z,2.17
2018-12-06T02:05:38.122Z,2.10
2018-12-06T02:08:06.307Z,2.10
2018-12-06T02:10:34.477Z,2.67
2018-12-06T02:13:04.636Z,2.53
2018-12-06T02:15:32.720Z,2.00
2018-12-06T02:18:00.834Z,2.97
2018-12-06T02:20:32.650Z,1.87
2018-12-06T02:23:04.470Z,2.00
2018-12-06T02:25:39.474Z,2.27
2018-12-06T02:28:07.656Z,1.50
2018-12-06T02:30:35.863Z,1.90
2018-12-06T02:33:04.046Z,2.13
2018-12-06T02:35:33.237Z,2.30
2018-12-06T02:38:01.407Z,2.53
2018-12-06T02:40:31.621Z,2.00
2018-12-06T02:42:59.876Z,3.43
2018-12-06T02:45:27.964Z,2.40
2018-12-06T02:47:56.179Z,2.50
2018-12-06T02:50:24.364Z,2.80
2018-12-06T02:52:52.645Z,2.13
2018-12-06T02:55:20.765Z,1.90
2018-12-06T02:57:48.856Z,2.30
2018-12-06T03:00:17.026Z,2.20
2018-12-06T03:02:45.191Z,2.20
2018-12-06T03:05:13.451Z,1.77
2018-12-06T03:07:41.627Z,2.00
2018-12-06T03:10:09.856Z,2.00
2018-12-06T03:12:37.995Z,3.07
2018-12-06T03:15:06.207Z,2.00
2018-12-06T03:17:34.374Z,1.73
2018-12-06T03:20:04.758Z,2.60
2018-12-06T03:22:32.941Z,1.70
2018-12-06T03:25:01.125Z,1.93
2018-12-06T03:27:29.483Z,3.10
2018-12-06T03:29:57.662Z,3.07
2018-12-06T03:32:25.847Z,2.03
2018-12-06T03:34:54.110Z,1.67
2018-12-06T03:37:22.287Z,1.93
2018-12-06T03:39:50.489Z,1.60
2018-12-06T03:42:18.993Z,1.37
2018-12-06T03:44:47.130Z,2.07
2018-12-06T03:47:15.310Z,1.93
2018-12-06T03:49:43.468Z,1.40
2018-12-06T03:52:11.745Z,1.90
2018-12-06T03:54:39.929Z,2.50
2018-12-06T03:57:08.095Z,2.40
2018-12-06T03:59:36.277Z,1.90
2018-12-06T04:02:04.446Z,2.43
2018-12-06T04:05:35.454Z,2.57
2018-12-06T04:08:03.573Z,2.03
2018-12-06T04:10:31.702Z,1.83
2018-12-06T04:12:59.851Z,1.57
2018-12-06T04:15:28.037Z,1.73
2018-12-06T04:17:56.143Z,1.57
2018-12-06T04:20:24.251Z,2.03
2018-12-06T04:22:52.457Z,2.00
2018-12-06T04:25:20.664Z,2.20
2018-12-06T04:27:48.768Z,1.83
2018-12-06T04:30:17.048Z,1.90
2018-12-06T04:32:45.330Z,2.03
2018-12-06T04:35:13.503Z,1.77
2018-12-06T04:37:41.619Z,1.40
2018-12-06T04:40:09.799Z,1.80
2018-12-06T04:42:37.938Z,1.37
2018-12-06T04:45:08.179Z,1.67
2018-12-06T04:47:36.327Z,2.00
2018-12-06T04:50:05.019Z,1.60
2018-12-06T04:52:33.198Z,1.70
2018-12-06T04:55:01.327Z,2.30
2018-12-06T04:57:29.608Z,1.73
2018-12-06T04:59:57.790Z,1.73
2018-12-06T05:02:26.035Z,1.67
2018-12-06T05:04:54.207Z,1.60
2018-12-06T05:07:22.353Z,1.60
2018-12-06T05:09:50.466Z,1.70
2018-12-06T05:12:18.622Z,1.77
2018-12-06T05:14:46.696Z,1.50
2018-12-06T05:17:14.871Z,1.60
2018-12-06T05:19:42.959Z,1.70
2018-12-06T05:22:11.195Z,2.07
2018-12-06T05:24:39.391Z,2.23
2018-12-06T05:27:07.538Z,2.23
2018-12-06T05:29:35.668Z,1.23
2018-12-06T05:32:03.904Z,1.97
2018-12-06T05:34:32.078Z,2.10
2018-12-06T05:37:00.239Z,2.23
2018-12-06T05:39:28.508Z,2.00
2018-12-06T05:41:57.715Z,1.60
2018-12-06T05:44:40.120Z,2.20
2018-12-06T05:47:09.358Z,1.60
2018-12-06T05:49:38.471Z,1.50
2018-12-06T05:52:06.542Z,2.13
2018-12-06T05:54:34.674Z,1.63
2018-12-06T05:57:02.980Z,1.60
2018-12-06T05:59:31.075Z,1.93
2018-12-06T06:01:59.162Z,1.93
2018-12-06T06:04:27.330Z,1.93
2018-12-06T06:06:57.458Z,2.57
2018-12-06T06:09:25.726Z,1.83
2018-12-06T06:11:53.935Z,1.60
2018-12-06T06:14:22.153Z,2.37
2018-12-06T06:16:50.277Z,2.30
2018-12-06T06:19:18.438Z,2.63
2018-12-06T06:21:46.637Z,1.90
2018-12-06T06:24:14.783Z,1.80
2018-12-06T06:26:42.980Z,1.83
2018-12-06T06:29:11.155Z,2.00
2018-12-06T06:31:39.308Z,2.07
2018-12-06T06:34:07.481Z,1.60
2018-12-06T06:36:35.672Z,1.50
2018-12-06T06:39:06.283Z,2.03
2018-12-06T06:41:34.476Z,2.00
2018-12-06T06:44:03.910Z,1.93
2018-12-06T06:46:32.018Z,1.87
2018-12-06T06:49:00.105Z,1.90
2018-12-06T06:51:28.325Z,1.90
2018-12-06T06:53:56.480Z,1.57
2018-12-06T06:56:24.649Z,1.77
2018-12-06T06:58:52.715Z,1.60
2018-12-06T07:01:20.890Z,1.80
2018-12-06T07:03:53.134Z,2.10
2018-12-06T07:06:21.346Z,1.40
2018-12-06T07:08:49.526Z,2.37
2018-12-06T07:11:17.724Z,1.90
2018-12-06T07:13:45.856Z,1.80
2018-12-06T07:16:14.098Z,1.40
2018-12-06T07:18:42.201Z,1.93
2018-12-06T07:21:10.405Z,1.70
2018-12-06T07:23:38.504Z,1.60
2018-12-06T07:26:06.603Z,1.77
2018-12-06T07:28:34.733Z,1.87
2018-12-06T07:31:02.905Z,2.03
2018-12-06T07:33:31.100Z,1.97
2018-12-06T07:35:59.223Z,2.00
2018-12-06T07:38:27.429Z,1.90
2018-12-06T07:40:55.614Z,1.60
2018-12-06T07:43:23.730Z,1.83
2018-12-06T07:45:56.211Z,1.50
2018-12-06T07:48:24.562Z,1.87
2018-12-06T07:50:52.704Z,1.73
2018-12-06T07:53:20.873Z,2.13
2018-12-06T07:55:49.046Z,1.90
2018-12-06T07:58:17.220Z,1.23
2018-12-06T08:00:45.405Z,1.83
2018-12-06T08:03:13.558Z,1.37
2018-12-06T08:05:41.734Z,1.60
2018-12-06T08:08:10.007Z,1.33
2018-12-06T08:10:40.233Z,2.07
2018-12-06T08:13:09.534Z,2.33
2018-12-06T08:15:37.774Z,1.47
2018-12-06T08:18:07.979Z,1.30
2018-12-06T08:20:36.099Z,2.00
2018-12-06T08:23:05.278Z,1.87
2018-12-06T08:25:33.474Z,1.57
2018-12-06T08:28:01.666Z,1.40
2018-12-06T08:30:30.930Z,2.00
2018-12-06T08:32:59.062Z,2.20
2018-12-06T08:35:27.162Z,2.10
2018-12-06T08:37:55.211Z,1.70
2018-12-06T08:40:23.399Z,1.83
2018-12-06T08:42:51.939Z,1.87
2018-12-06T08:45:20.248Z,2.20
2018-12-06T08:47:48.474Z,2.43
2018-12-06T08:50:16.681Z,1.77
2018-12-06T08:52:44.849Z,1.97
2018-12-06T08:55:12.963Z,2.00
2018-12-06T08:57:41.079Z,1.93
2018-12-06T09:00:10.807Z,1.90
2018-12-06T09:02:38.981Z,2.33
2018-12-06T09:05:07.897Z,2.07
2018-12-06T09:07:36.776Z,1.80
2018-12-06T09:10:06.352Z,2.63
2018-12-06T09:12:34.587Z,1.87
2018-12-06T09:15:02.741Z,1.40
2018-12-06T09:17:30.939Z,1.80
2018-12-06T09:19:59.071Z,2.40
2018-12-06T09:22:27.427Z,1.80
2018-12-06T09:24:55.687Z,1.80
2018-12-06T09:27:23.885Z,1.53
2018-12-06T09:29:52.091Z,2.03
2018-12-06T09:32:20.228Z,2.03
2018-12-06T09:34:48.448Z,1.93
2018-12-06T09:37:16.631Z,1.90
2018-12-06T09:39:54.936Z,1.77
2018-12-06T09:42:23.144Z,1.70
2018-12-06T09:44:51.291Z,2.53
2018-12-06T09:47:19.439Z,2.20
2018-12-06T09:49:47.582Z,1.77
2018-12-06T09:52:15.768Z,1.53
2018-12-06T09:54:43.954Z,2.40
2018-12-06T09:57:12.121Z,1.57
2018-12-06T09:59:40.327Z,2.03
2018-12-06T10:02:08.504Z,1.80
2018-12-06T10:04:36.640Z,1.87
2018-12-06T10:07:04.847Z,1.83
2018-12-06T10:09:33.072Z,1.77
2018-12-06T10:12:01.250Z,1.60
2018-12-06T10:14:29.424Z,1.87
2018-12-06T10:16:57.663Z,2.20
2018-12-06T10:19:26.761Z,2.23
2018-12-06T10:21:54.951Z,1.63
2018-12-06T10:24:23.058Z,1.77
2018-12-06T10:26:51.211Z,1.97
2018-12-06T10:29:19.462Z,2.43
2018-12-06T10:31:47.603Z,1.73
2018-12-06T10:34:15.756Z,2.07
2018-12-06T10:36:45.069Z,1.90
2018-12-06T10:39:13.280Z,1.90
2018-12-06T10:41:41.404Z,2.47
2018-12-06T10:44:11.473Z,1.90
2018-12-06T10:46:39.614Z,2.30
2018-12-06T10:49:07.768Z,1.80
2018-12-06T10:51:42.407Z,1.87
2018-12-06T10:54:10.583Z,2.43
2018-12-06T10:56:38.786Z,2.10
2018-12-06T10:59:06.924Z,2.27
2018-12-06T11:01:40.517Z,3.27
2018-12-06T11:04:08.719Z,2.97
2018-12-06T11:06:36.957Z,1.87
2018-12-06T11:09:06.992Z,1.73
2018-12-06T11:11:35.182Z,2.00
2018-12-06T11:14:03.728Z,1.80
2018-12-06T11:16:31.947Z,2.43
2018-12-06T11:19:00.118Z,2.20
2018-12-06T11:21:28.303Z,2.07
2018-12-06T11:23:56.397Z,2.00
2018-12-06T11:26:26.593Z,2.97
2018-12-06T11:28:54.739Z,2.13
2018-12-06T11:31:22.967Z,1.93
2018-12-06T11:33:51.055Z,2.80
2018-12-06T11:36:19.191Z,2.57
2018-12-06T11:38:47.450Z,2.33
2018-12-06T11:41:16.672Z,2.00
2018-12-06T11:43:44.884Z,2.87
2018-12-06T11:46:14.437Z,2.20
2018-12-06T11:48:42.614Z,2.40
2018-12-06T11:51:10.862Z,2.50
2018-12-06T11:53:38.970Z,2.90
2018-12-06T11:56:07.108Z,1.87
2018-12-06T11:58:35.317Z,1.87
2018-12-06T12:01:03.470Z,2.40
2018-12-06T12:03:31.632Z,2.30
2018-12-06T12:05:59.845Z,2.70
2018-12-06T12:08:27.996Z,2.60
2018-12-06T12:10:56.128Z,2.03
2018-12-06T12:13:24.241Z,2.07
2018-12-06T12:15:52.387Z,2.00
2018-12-06T12:18:20.520Z,2.33
2018-12-06T12:20:48.795Z,3.30
2018-12-06T12:23:16.953Z,2.43
2018-12-06T12:25:45.131Z,2.47
2018-12-06T12:28:13.314Z,2.13
2018-12-06T12:30:41.459Z,2.47
2018-12-06T12:33:09.672Z,2.00
2018-12-06T12:35:37.861Z,2.43
2018-12-06T12:38:06.043Z,2.27
2018-12-06T12:40:34.164Z,2.43
2018-12-06T12:43:02.338Z,2.13
2018-12-06T12:45:30.513Z,2.33
2018-12-06T12:47:58.707Z,2.30
2018-12-06T12:50:26.870Z,2.03
2018-12-06T12:52:55.041Z,2.57
2018-12-06T12:55:23.223Z,3.03
2018-12-06T12:57:51.453Z,2.60
2018-12-06T13:00:19.614Z,3.03
2018-12-06T13:02:47.732Z,2.90
2018-12-06T13:05:15.910Z,2.73
2018-12-06T13:07:44.087Z,2.13
2018-12-06T13:10:12.255Z,3.00
2018-12-06T13:12:40.435Z,2.73
2018-12-06T13:15:08.604Z,2.70
2018-12-06T13:17:37.286Z,2.67
2018-12-06T13:20:05.658Z,3.07
2018-12-06T13:22:33.906Z,2.97
2018-12-06T13:25:02.019Z,2.73
2018-12-06T13:27:30.226Z,2.63
2018-12-06T13:29:58.396Z,2.83
2018-12-06T13:32:26.552Z,3.23
2018-12-06T13:34:54.812Z,2.70
2018-12-06T13:37:23.030Z,2.43
2018-12-06T13:39:51.454Z,2.50
2018-12-06T13:42:23.612Z,2.20
2018-12-06T13:44:49.788Z,2.23
2018-12-06T13:47:17.970Z,2.17
2018-12-06T13:49:47.122Z,2.30
2018-12-06T13:52:15.276Z,2.50
2018-12-06T13:54:46.502Z,2.87
2018-12-06T13:57:14.639Z,2.73
2018-12-06T13:59:43.687Z,2.30
2018-12-06T14:02:11.788Z,2.30
2018-12-06T14:04:40.921Z,3.20
2018-12-06T14:07:10.053Z,3.80
2018-12-06T14:09:39.206Z,2.93
2018-12-06T14:12:07.499Z,2.37
2018-12-06T14:14:35.633Z,2.77
2018-12-06T14:17:04.273Z,3.73
2018-12-06T14:19:32.407Z,2.60
2018-12-06T14:22:00.587Z,3.33
2018-12-06T14:24:28.804Z,2.90
2018-12-06T14:26:57.963Z,2.73
2018-12-06T14:29:26.146Z,2.97
2018-12-06T14:31:54.384Z,2.97
2018-12-06T14:34:22.481Z,2.70
2018-12-06T14:37:01.660Z,3.00
2018-12-06T14:39:20.780Z,2.90
2018-12-06T14:41:48.945Z,2.77
2018-12-06T14:44:17.161Z,3.30
2018-12-06T14:46:45.352Z,2.93
2018-12-06T14:49:13.515Z,3.67
2018-12-06T14:51:41.675Z,3.30
2018-12-06T14:54:09.856Z,3.50
2018-12-06T14:56:38.024Z,3.07
2018-12-06T14:59:06.156Z,2.97
2018-12-06T15:01:34.371Z,3.50
2018-12-06T15:04:02.566Z,4.20
2018-12-06T15:06:37.336Z,3.40
2018-12-06T15:09:00.907Z,3.77
2018-12-06T15:11:29.071Z,3.97
2018-12-06T15:13:57.294Z,3.40
2018-12-06T15:16:25.463Z,3.67
2018-12-06T15:18:53.654Z,2.80
2018-12-06T15:21:21.825Z,3.13
2018-12-06T15:23:49.917Z,3.50
2018-12-06T15:26:18.076Z,3.90
2018-12-06T15:28:46.198Z,4.40
2018-12-06T15:31:14.428Z,2.87
2018-12-06T15:33:42.550Z,3.60
2018-12-06T15:36:10.775Z,3.60
2018-12-06T15:38:38.911Z,2.90
2018-12-06T15:41:07.118Z,3.80
2018-12-06T15:43:36.398Z,3.60
2018-12-06T15:46:04.572Z,4.30
2018-12-06T15:48:34.691Z,3.53
2018-12-06T15:51:03.790Z,3.07
2018-12-06T15:53:31.952Z,3.43
2018-12-06T15:56:00.189Z,3.43
2018-12-06T15:58:28.348Z,3.47
2018-12-06T16:00:56.434Z,3.10
2018-12-06T16:03:24.564Z,3.63
2018-12-06T16:05:52.758Z,3.43
2018-12-06T16:08:20.973Z,3.50
2018-12-06T16:10:49.223Z,4.33
2018-12-06T16:13:17.403Z,3.27
2018-12-06T16:15:45.522Z,4.40
2018-12-06T16:18:13.723Z,4.17
2018-12-06T16:20:41.887Z,4.10
2018-12-06T16:23:10.088Z,3.93
2018-12-06T16:25:38.264Z,3.63
2018-12-06T16:28:06.131Z,3.73
2018-12-06T16:30:34.313Z,4.50
2018-12-06T16:33:02.510Z,4.10
2018-12-06T16:35:30.582Z,4.73
2018-12-06T16:37:58.758Z,3.97
2018-12-06T16:40:26.849Z,4.53
2018-12-06T16:42:55.058Z,4.97
2018-12-06T16:45:23.239Z,4.27
2018-12-06T16:47:51.472Z,4.37
2018-12-06T16:50:19.688Z,5.43
2018-12-06T16:52:47.863Z,4.63
2018-12-06T16:55:17.052Z,5.07
2018-12-06T16:57:45.250Z,4.97
2018-12-06T17:00:14.763Z,5.03
2018-12-06T17:02:43.139Z,5.13
2018-12-06T17:05:11.316Z,5.53
2018-12-06T17:07:40.476Z,4.97
2018-12-06T17:10:08.706Z,5.30
2018-12-06T17:12:36.862Z,5.00
2018-12-06T17:15:05.943Z,5.90
2018-12-06T17:18:58.582Z,5.90
2018-12-06T17:21:26.827Z,5.27
2018-12-06T17:23:55.065Z,5.43
2018-12-06T17:26:23.251Z,6.03
2018-12-06T17:28:51.392Z,6.17
2018-12-06T17:31:19.564Z,6.27
2018-12-06T17:33:47.770Z,6.03
2018-12-06T17:36:16.971Z,6.00
2018-12-06T17:38:45.152Z,6.07
2018-12-06T17:41:13.265Z,6.27
2018-12-06T17:43:41.462Z,6.80
2018-12-06T17:46:09.638Z,6.90
2018-12-06T17:48:37.826Z,7.13
2018-12-06T17:51:06.030Z,6.17
2018-12-06T17:53:34.274Z,6.90
2018-12-06T17:56:02.430Z,6.77
2018-12-06T17:58:31.645Z,7.37
2018-12-06T18:00:59.838Z,6.53
2018-12-06T18:03:29.001Z,6.40
2018-12-06T18:05:57.204Z,6.40
2018-12-06T18:08:25.382Z,6.10
2018-12-06T18:10:53.736Z,7.20
2018-12-06T18:13:25.911Z,7.33
2018-12-06T18:15:56.035Z,7.00
2018-12-06T18:18:24.218Z,6.73
2018-12-06T18:20:52.358Z,7.47
2018-12-06T18:23:21.625Z,7.13
2018-12-06T18:25:50.742Z,6.33
2018-12-06T18:28:18.992Z,6.93
2018-12-06T18:30:47.173Z,7.23
2018-12-06T18:33:15.386Z,6.83
2018-12-06T18:35:43.626Z,6.73
2018-12-06T18:38:11.760Z,6.50
2018-12-06T18:40:39.958Z,8.03
2018-12-06T18:43:08.126Z,6.87
2018-12-06T18:45:36.313Z,7.53
2018-12-06T18:48:04.570Z,7.77
2018-12-06T18:50:32.752Z,7.23
2018-12-06T18:53:00.964Z,7.37
2018-12-06T18:55:29.220Z,7.00
2018-12-06T18:57:57.395Z,6.47
2018-12-06T19:00:25.547Z,7.60
2018-12-06T19:02:53.669Z,8.07
2018-12-06T19:05:21.897Z,7.50
2018-12-06T19:07:50.236Z,6.67
2018-12-06T19:10:18.416Z,7.83
2018-12-06T19:12:46.635Z,6.80
2018-12-06T19:15:14.842Z,7.43
2018-12-06T19:17:43.071Z,8.03
2018-12-06T19:20:11.236Z,7.37
2018-12-06T19:22:39.429Z,7.53
2018-12-06T19:25:07.610Z,7.97
2018-12-06T19:27:35.859Z,6.43
2018-12-06T19:30:04.950Z,8.07
2018-12-06T19:32:33.158Z,7.63
2018-12-06T19:35:01.385Z,7.20
2018-12-06T19:37:30.640Z,6.97
2018-12-06T19:39:59.090Z,8.10
2018-12-06T19:42:27.259Z,6.70
2018-12-06T19:44:55.427Z,7.87
2018-12-06T19:47:23.579Z,7.13
2018-12-06T19:49:51.783Z,7.20
2018-12-06T19:52:19.982Z,9.07
2018-12-06T19:54:48.125Z,8.43
2018-12-06T19:57:16.327Z,9.07
2018-12-06T19:59:44.466Z,8.43
2018-12-06T20:02:12.587Z,7.03
2018-12-06T20:04:41.750Z,7.67
2018-12-06T20:07:09.930Z,8.87
2018-12-06T20:09:38.063Z,8.10
2018-12-06T20:12:06.379Z,9.97
2018-12-06T20:14:34.539Z,7.97
2018-12-06T20:17:02.671Z,7.53
2018-12-06T20:19:30.815Z,7.90
2018-12-06T20:21:58.975Z,7.87
2018-12-06T20:24:27.162Z,8.17
2018-12-06T20:26:55.330Z,8.27
2018-12-06T20:29:23.523Z,7.70
2018-12-06T20:31:51.676Z,7.13
2018-12-06T20:34:19.888Z,8.17
2018-12-06T20:36:48.140Z,8.07
2018-12-06T20:39:16.313Z,8.60
2018-12-06T20:41:44.626Z,7.50
2018-12-06T20:44:13.783Z,7.80
2018-12-06T20:46:41.963Z,7.73
2018-12-06T20:49:10.118Z,7.90
2018-12-06T20:51:38.336Z,8.13
2018-12-06T20:54:06.503Z,9.43
2018-12-06T20:56:34.630Z,8.60
2018-12-06T20:59:02.852Z,9.20
2018-12-06T21:01:31.003Z,9.90
2018-12-06T21:04:02.264Z,10.10
2018-12-06T21:06:30.450Z,10.13
2018-12-06T21:08:58.583Z,9.07
2018-12-06T21:11:26.788Z,9.30
2018-12-06T21:13:54.963Z,10.17
2018-12-06T21:16:23.116Z,9.80
2018-12-06T21:18:51.354Z,11.77
2018-12-06T21:21:19.613Z,12.17
2018-12-06T21:23:47.761Z,11.83
2018-12-06T21:26:15.885Z,11.50
2018-12-06T21:28:44.184Z,10.87
2018-12-06T21:31:12.403Z,12.80
2018-12-06T21:33:40.600Z,11.70
2018-12-06T21:36:08.832Z,11.77
2018-12-06T21:38:37.066Z,12.00
2018-12-06T21:41:05.329Z,11.97
2018-12-06T21:43:33.462Z,12.30
2018-12-06T21:46:01.638Z,9.77
2018-12-06T21:48:29.809Z,9.63
2018-12-06T21:50:57.972Z,10.07
2018-12-06T21:53:26.131Z,10.23
2018-12-06T21:57:56.619Z,11.07
2018-12-06T22:00:24.832Z,9.27
2018-12-06T22:02:53.085Z,9.33
2018-12-06T22:05:21.190Z,10.43
2018-12-06T22:07:49.419Z,9.63
2018-12-06T22:10:17.572Z,9.13
2018-12-06T22:12:46.782Z,9.53
2018-12-06T22:15:14.958Z,10.97
2018-12-06T22:17:43.139Z,10.40
2018-12-06T22:20:11.828Z,11.03
2018-12-06T22:22:39.928Z,10.50
2018-12-06T22:25:08.107Z,10.00
2018-12-06T22:27:36.450Z,9.73
2018-12-06T22:30:05.600Z,9.50
2018-12-06T22:32:33.810Z,8.77
2018-12-06T22:35:01.982Z,9.77
2018-12-06T22:37:30.165Z,9.53
2018-12-06T22:39:58.364Z,11.37
2018-12-06T22:42:26.437Z,10.67
2018-12-06T22:46:06.374Z,10.80
2018-12-06T22:48:34.534Z,9.40
2018-12-06T22:51:02.704Z,10.67
2018-12-06T22:53:30.944Z,9.90
2018-12-06T22:55:59.161Z,11.10
2018-12-06T22:58:27.428Z,10.17
2018-12-06T23:00:57.974Z,10.13
2018-12-06T23:03:26.851Z,10.37
2018-12-06T23:05:55.300Z,10.03
2018-12-06T23:08:23.527Z,10.43
2018-12-06T23:10:51.751Z,10.07
2018-12-06T23:13:19.884Z,9.47
2018-12-06T23:15:48.042Z,9.50
2018-12-06T23:18:16.155Z,10.70
2018-12-06T23:20:44.295Z,10.33
2018-12-06T23:23:12.440Z,9.83
2018-12-06T23:25:40.699Z,9.13
2018-12-06T23:28:09.841Z,9.87
2018-12-06T23:30:38.007Z,9.80
2018-12-06T23:33:06.191Z,9.77
2018-12-06T23:35:34.358Z,10.10
2018-12-06T23:38:02.561Z,9.83
2018-12-06T23:40:30.767Z,10.17
2018-12-06T23:42:58.979Z,9.53
2018-12-06T23:45:27.162Z,10.00
2018-12-06T23:47:55.335Z,9.00
2018-12-06T23:50:23.490Z,10.00
2018-12-06T23:52:51.605Z,8.63
2018-12-06T23:55:19.760Z,8.50
2018-12-06T23:57:47.908Z,8.20
